sensor_id;sensor_type;location;lat;lon;timestamp;pressure;altitude;pressure_sealevel;temperature;humidity
42705;BME280;28342;42.594;23.414;2023-05-11T00:01:27;94731.25;;;9.57;78.06
42705;BME280;28342;42.594;23.414;2023-05-11T00:03:52;94716.16;;;9.44;78.78
42705;BME280;28342;42.594;23.414;2023-05-11T00:06:19;94720.78;;;9.52;78.96
42705;BME280;28342;42.594;23.414;2023-05-11T00:08:45;94723.78;;;9.45;78.20
42705;BME280;28342;42.594;23.414;2023-05-11T00:11:10;94727.34;;;9.54;78.96
42705;BME280;28342;42.594;23.414;2023-05-11T00:13:36;94736.25;;;9.72;79.61
42705;BME280;28342;42.594;23.414;2023-05-11T00:16:01;94732.22;;;9.75;78.85
42705;BME280;28342;42.594;23.414;2023-05-11T00:18:28;94728.19;;;9.77;78.40
42705;BME280;28342;42.594;23.414;2023-05-11T00:20:54;94735.56;;;9.80;78.75
42705;BME280;28342;42.594;23.414;2023-05-11T00:23:20;94709.97;;;9.62;78.31
42705;BME280;28342;42.594;23.414;2023-05-11T00:25:46;94729.88;;;9.59;78.21
42705;BME280;28342;42.594;23.414;2023-05-11T00:28:11;94742.03;;;9.74;77.69
42705;BME280;28342;42.594;23.414;2023-05-11T00:30:39;94715.66;;;9.69;77.85
42705;BME280;28342;42.594;23.414;2023-05-11T00:33:05;94727.81;;;9.70;78.29
42705;BME280;28342;42.594;23.414;2023-05-11T00:35:31;94730.09;;;9.36;79.19
42705;BME280;28342;42.594;23.414;2023-05-11T00:37:57;94726.56;;;9.54;79.02
42705;BME280;28342;42.594;23.414;2023-05-11T00:40:23;94723.00;;;9.45;79.60
42705;BME280;28342;42.594;23.414;2023-05-11T00:42:48;94733.78;;;9.48;78.54
42705;BME280;28342;42.594;23.414;2023-05-11T00:45:14;94732.63;;;9.54;78.23
42705;BME280;28342;42.594;23.414;2023-05-11T00:47:40;94726.44;;;9.45;79.11
42705;BME280;28342;42.594;23.414;2023-05-11T00:50:06;94738.59;;;9.60;78.37
42705;BME280;28342;42.594;23.414;2023-05-11T00:52:33;94710.06;;;9.29;77.89
42705;BME280;28342;42.594;23.414;2023-05-11T00:54:58;94734.97;;;9.28;78.22
42705;BME280;28342;42.594;23.414;2023-05-11T00:57:24;94716.13;;;9.16;78.31
42705;BME280;28342;42.594;23.414;2023-05-11T00:59:50;94729.78;;;9.23;78.70
42705;BME280;28342;42.594;23.414;2023-05-11T01:02:16;94733.00;;;9.34;79.09
42705;BME280;28342;42.594;23.414;2023-05-11T01:04:41;94730.34;;;9.34;79.37
42705;BME280;28342;42.594;23.414;2023-05-11T01:07:20;94744.38;;;9.48;78.97
42705;BME280;28342;42.594;23.414;2023-05-11T01:12:58;94742.63;;;9.44;78.68
42705;BME280;28342;42.594;23.414;2023-05-11T01:15:32;94731.53;;;9.42;79.35
42705;BME280;28342;42.594;23.414;2023-05-11T01:18:25;94721.56;;;9.39;79.89
42705;BME280;28342;42.594;23.414;2023-05-11T01:20:56;94729.66;;;9.28;79.98
42705;BME280;28342;42.594;23.414;2023-05-11T01:31:29;94732.75;;;9.03;80.84
42705;BME280;28342;42.594;23.414;2023-05-11T01:34:09;94738.25;;;8.93;80.75
42705;BME280;28342;42.594;23.414;2023-05-11T01:36:41;94739.31;;;8.92;81.44
42705;BME280;28342;42.594;23.414;2023-05-11T01:39:09;94711.94;;;8.83;81.11
42705;BME280;28342;42.594;23.414;2023-05-11T01:41:38;94738.03;;;8.89;81.04
42705;BME280;28342;42.594;23.414;2023-05-11T01:44:06;94725.25;;;8.78;80.96
42705;BME280;28342;42.594;23.414;2023-05-11T01:46:33;94736.19;;;8.71;81.54
42705;BME280;28342;42.594;23.414;2023-05-11T01:49:02;94726.06;;;8.78;81.46
42705;BME280;28342;42.594;23.414;2023-05-11T01:51:33;94697.78;;;8.60;81.48
42705;BME280;28342;42.594;23.414;2023-05-11T01:54:02;94731.59;;;8.63;80.42
42705;BME280;28342;42.594;23.414;2023-05-11T01:56:30;94732.88;;;8.65;81.22
42705;BME280;28342;42.594;23.414;2023-05-11T01:58:58;94736.00;;;8.67;80.90
42705;BME280;28342;42.594;23.414;2023-05-11T02:01:25;94730.31;;;8.60;80.66
42705;BME280;28342;42.594;23.414;2023-05-11T02:03:53;94727.97;;;8.73;81.23
42705;BME280;28342;42.594;23.414;2023-05-11T02:06:21;94746.91;;;8.80;79.84
42705;BME280;28342;42.594;23.414;2023-05-11T02:08:48;94723.44;;;8.59;80.23
42705;BME280;28342;42.594;23.414;2023-05-11T02:11:14;94739.78;;;8.80;80.63
42705;BME280;28342;42.594;23.414;2023-05-11T02:13:42;94707.88;;;8.58;79.83
42705;BME280;28342;42.594;23.414;2023-05-11T02:16:12;94735.47;;;8.84;79.67
42705;BME280;28342;42.594;23.414;2023-05-11T02:18:39;94729.19;;;8.80;79.52
42705;BME280;28342;42.594;23.414;2023-05-11T02:21:08;94722.78;;;8.67;80.26
42705;BME280;28342;42.594;23.414;2023-05-11T02:23:35;94726.59;;;8.61;80.10
42705;BME280;28342;42.594;23.414;2023-05-11T02:26:02;94715.53;;;8.59;80.17
42705;BME280;28342;42.594;23.414;2023-05-11T02:28:30;94722.69;;;8.73;79.93
42705;BME280;28342;42.594;23.414;2023-05-11T02:30:59;94709.44;;;8.59;79.45
42705;BME280;28342;42.594;23.414;2023-05-11T02:33:34;94732.91;;;8.79;80.35
42705;BME280;28342;42.594;23.414;2023-05-11T02:36:01;94736.19;;;8.90;79.63
42705;BME280;28342;42.594;23.414;2023-05-11T02:38:34;94730.38;;;8.88;78.77
42705;BME280;28342;42.594;23.414;2023-05-11T02:41:03;94728.28;;;9.04;79.41
42705;BME280;28342;42.594;23.414;2023-05-11T02:43:34;94718.91;;;8.79;78.79
42705;BME280;28342;42.594;23.414;2023-05-11T02:46:06;94732.41;;;8.77;78.80
42705;BME280;28342;42.594;23.414;2023-05-11T02:48:37;94730.88;;;8.90;79.50
42705;BME280;28342;42.594;23.414;2023-05-11T02:51:06;94702.16;;;8.83;77.76
42705;BME280;28342;42.594;23.414;2023-05-11T02:53:33;94722.97;;;9.04;78.31
42705;BME280;28342;42.594;23.414;2023-05-11T02:56:00;94709.53;;;9.00;78.48
42705;BME280;28342;42.594;23.414;2023-05-11T02:58:26;94730.44;;;9.15;78.01
42705;BME280;28342;42.594;23.414;2023-05-11T03:00:52;94714.81;;;9.00;78.61
42705;BME280;28342;42.594;23.414;2023-05-11T03:03:18;94733.75;;;9.07;78.36
42705;BME280;28342;42.594;23.414;2023-05-11T03:05:43;94719.22;;;8.91;77.83
42705;BME280;28342;42.594;23.414;2023-05-11T03:08:09;94725.13;;;9.02;77.99
42705;BME280;28342;42.594;23.414;2023-05-11T03:10:34;94712.09;;;8.73;78.64
42705;BME280;28342;42.594;23.414;2023-05-11T03:13:00;94712.53;;;8.80;79.13
42705;BME280;28342;42.594;23.414;2023-05-11T03:15:28;94721.94;;;8.86;79.21
42705;BME280;28342;42.594;23.414;2023-05-11T03:17:55;94730.31;;;8.93;79.94
42705;BME280;28342;42.594;23.414;2023-05-11T03:20:22;94725.75;;;8.80;79.22
42705;BME280;28342;42.594;23.414;2023-05-11T03:22:50;94716.06;;;8.75;79.71
42705;BME280;28342;42.594;23.414;2023-05-11T03:25:17;94723.13;;;8.80;80.53
42705;BME280;28342;42.594;23.414;2023-05-11T03:27:44;94724.09;;;8.84;80.08
42705;BME280;28342;42.594;23.414;2023-05-11T03:30:12;94729.88;;;8.86;79.89
42705;BME280;28342;42.594;23.414;2023-05-11T03:32:38;94718.81;;;8.51;80.39
42705;BME280;28342;42.594;23.414;2023-05-11T03:35:05;94725.84;;;8.75;80.96
42705;BME280;28342;42.594;23.414;2023-05-11T03:37:33;94714.09;;;8.48;80.40
42705;BME280;28342;42.594;23.414;2023-05-11T03:40:02;94711.13;;;8.68;81.51
42705;BME280;28342;42.594;23.414;2023-05-11T03:42:29;94718.81;;;8.84;81.80
42705;BME280;28342;42.594;23.414;2023-05-11T03:44:57;94719.16;;;8.63;80.26
42705;BME280;28342;42.594;23.414;2023-05-11T03:47:31;94711.31;;;8.72;80.44
42705;BME280;28342;42.594;23.414;2023-05-11T03:49:57;94718.59;;;8.80;79.82
42705;BME280;28342;42.594;23.414;2023-05-11T03:52:23;94742.56;;;9.03;79.62
42705;BME280;28342;42.594;23.414;2023-05-11T03:54:49;94735.50;;;8.98;79.75
42705;BME280;28342;42.594;23.414;2023-05-11T03:57:14;94741.50;;;9.04;80.51
42705;BME280;28342;42.594;23.414;2023-05-11T03:59:40;94749.53;;;9.12;79.78
42705;BME280;28342;42.594;23.414;2023-05-11T04:02:06;94726.69;;;8.89;80.23
42705;BME280;28342;42.594;23.414;2023-05-11T04:04:32;94724.56;;;9.05;79.76
42705;BME280;28342;42.594;23.414;2023-05-11T04:06:58;94733.31;;;8.86;78.72
42705;BME280;28342;42.594;23.414;2023-05-11T04:09:23;94736.09;;;8.95;79.25
42705;BME280;28342;42.594;23.414;2023-05-11T04:11:49;94737.31;;;8.84;79.78
42705;BME280;28342;42.594;23.414;2023-05-11T04:14:15;94731.78;;;8.66;80.41
42705;BME280;28342;42.594;23.414;2023-05-11T04:16:45;94749.97;;;8.87;79.78
42705;BME280;28342;42.594;23.414;2023-05-11T04:19:10;94746.25;;;8.88;80.13
42705;BME280;28342;42.594;23.414;2023-05-11T04:21:36;94738.94;;;8.66;80.31
42705;BME280;28342;42.594;23.414;2023-05-11T04:24:01;94729.22;;;8.61;80.98
42705;BME280;28342;42.594;23.414;2023-05-11T04:26:27;94740.31;;;8.63;80.97
42705;BME280;28342;42.594;23.414;2023-05-11T04:28:52;94766.25;;;8.61;81.88
42705;BME280;28342;42.594;23.414;2023-05-11T04:31:18;94768.03;;;8.47;82.96
42705;BME280;28342;42.594;23.414;2023-05-11T04:33:44;94757.59;;;8.37;82.60
42705;BME280;28342;42.594;23.414;2023-05-11T04:36:09;94765.44;;;8.42;83.52
42705;BME280;28342;42.594;23.414;2023-05-11T04:38:35;94755.59;;;8.29;83.26
42705;BME280;28342;42.594;23.414;2023-05-11T04:41:05;94769.22;;;8.17;84.16
42705;BME280;28342;42.594;23.414;2023-05-11T04:43:31;94757.00;;;8.02;84.77
42705;BME280;28342;42.594;23.414;2023-05-11T04:45:56;94767.88;;;8.20;85.92
42705;BME280;28342;42.594;23.414;2023-05-11T04:48:23;94761.88;;;8.14;85.29
42705;BME280;28342;42.594;23.414;2023-05-11T04:50:49;94770.66;;;8.28;84.49
42705;BME280;28342;42.594;23.414;2023-05-11T04:53:14;94756.72;;;8.23;85.10
42705;BME280;28342;42.594;23.414;2023-05-11T04:55:40;94740.56;;;8.05;84.68
42705;BME280;28342;42.594;23.414;2023-05-11T04:58:05;94775.72;;;8.25;84.93
42705;BME280;28342;42.594;23.414;2023-05-11T05:00:30;94765.16;;;8.25;85.47
42705;BME280;28342;42.594;23.414;2023-05-11T05:02:56;94779.34;;;8.34;86.48
42705;BME280;28342;42.594;23.414;2023-05-11T05:05:21;94763.22;;;8.30;85.63
42705;BME280;28342;42.594;23.414;2023-05-11T05:07:47;94780.03;;;8.39;85.73
42705;BME280;28342;42.594;23.414;2023-05-11T05:10:12;94781.75;;;8.49;85.85
42705;BME280;28342;42.594;23.414;2023-05-11T05:12:38;94793.66;;;8.28;86.27
42705;BME280;28342;42.594;23.414;2023-05-11T05:15:04;94787.19;;;8.39;87.15
42705;BME280;28342;42.594;23.414;2023-05-11T05:17:30;94795.56;;;8.22;87.57
42705;BME280;28342;42.594;23.414;2023-05-11T05:19:56;94784.50;;;8.20;88.10
42705;BME280;28342;42.594;23.414;2023-05-11T05:22:22;94790.28;;;8.22;88.11
42705;BME280;28342;42.594;23.414;2023-05-11T05:24:48;94783.22;;;8.18;88.77
42705;BME280;28342;42.594;23.414;2023-05-11T05:27:13;94787.50;;;8.14;88.45
42705;BME280;28342;42.594;23.414;2023-05-11T05:29:39;94793.72;;;8.23;87.90
42705;BME280;28342;42.594;23.414;2023-05-11T05:32:04;94795.78;;;8.26;87.83
42705;BME280;28342;42.594;23.414;2023-05-11T05:34:30;94796.84;;;8.25;88.64
42705;BME280;28342;42.594;23.414;2023-05-11T05:36:55;94794.16;;;8.30;88.64
42705;BME280;28342;42.594;23.414;2023-05-11T05:39:20;94799.94;;;8.13;87.84
42705;BME280;28342;42.594;23.414;2023-05-11T05:41:46;94791.03;;;8.28;87.09
42705;BME280;28342;42.594;23.414;2023-05-11T05:44:11;94784.09;;;8.13;86.45
42705;BME280;28342;42.594;23.414;2023-05-11T05:46:38;94788.00;;;8.16;86.93
42705;BME280;28342;42.594;23.414;2023-05-11T05:49:04;94785.50;;;8.24;86.13
42705;BME280;28342;42.594;23.414;2023-05-11T05:51:29;94795.06;;;8.44;86.15
42705;BME280;28342;42.594;23.414;2023-05-11T05:53:55;94806.41;;;8.63;86.11
42705;BME280;28342;42.594;23.414;2023-05-11T05:56:20;94797.97;;;8.61;85.13
42705;BME280;28342;42.594;23.414;2023-05-11T05:58:46;94802.59;;;8.69;83.30
42705;BME280;28342;42.594;23.414;2023-05-11T06:01:12;94808.56;;;8.61;83.33
42705;BME280;28342;42.594;23.414;2023-05-11T06:03:38;94812.69;;;8.49;84.79
42705;BME280;28342;42.594;23.414;2023-05-11T06:06:04;94813.13;;;8.37;84.39
42705;BME280;28342;42.594;23.414;2023-05-11T06:08:31;94819.47;;;8.36;84.88
42705;BME280;28342;42.594;23.414;2023-05-11T06:10:56;94808.44;;;8.29;85.24
42705;BME280;28342;42.594;23.414;2023-05-11T06:13:22;94824.25;;;8.53;84.88
42705;BME280;28342;42.594;23.414;2023-05-11T06:15:47;94827.06;;;8.61;85.56
42705;BME280;28342;42.594;23.414;2023-05-11T06:18:13;94820.34;;;8.69;84.74
42705;BME280;28342;42.594;23.414;2023-05-11T06:20:38;94826.34;;;8.75;85.20
42705;BME280;28342;42.594;23.414;2023-05-11T06:23:04;94834.84;;;8.72;84.71
42705;BME280;28342;42.594;23.414;2023-05-11T06:25:32;94821.91;;;8.51;85.02
42705;BME280;28342;42.594;23.414;2023-05-11T06:27:58;94825.13;;;8.48;86.39
42705;BME280;28342;42.594;23.414;2023-05-11T06:30:23;94835.63;;;8.53;85.59
42705;BME280;28342;42.594;23.414;2023-05-11T06:32:49;94833.63;;;8.45;84.94
42705;BME280;28342;42.594;23.414;2023-05-11T06:35:14;94824.25;;;8.53;86.47
42705;BME280;28342;42.594;23.414;2023-05-11T06:37:40;94841.50;;;8.50;85.46
42705;BME280;28342;42.594;23.414;2023-05-11T06:40:06;94813.63;;;8.39;86.52
42705;BME280;28342;42.594;23.414;2023-05-11T06:42:32;94832.72;;;8.31;85.88
42705;BME280;28342;42.594;23.414;2023-05-11T06:44:57;94840.13;;;8.53;86.64
42705;BME280;28342;42.594;23.414;2023-05-11T06:47:23;94829.34;;;8.49;85.41
42705;BME280;28342;42.594;23.414;2023-05-11T06:49:48;94809.19;;;8.53;86.79
42705;BME280;28342;42.594;23.414;2023-05-11T06:52:13;94835.78;;;8.81;85.56
42705;BME280;28342;42.594;23.414;2023-05-11T06:54:39;94836.97;;;8.69;85.61
42705;BME280;28342;42.594;23.414;2023-05-11T06:57:04;94838.06;;;8.68;83.90
42705;BME280;28342;42.594;23.414;2023-05-11T06:59:30;94838.69;;;8.42;84.90
42705;BME280;28342;42.594;23.414;2023-05-11T07:01:56;94815.75;;;8.37;85.46
42705;BME280;28342;42.594;23.414;2023-05-11T07:04:22;94835.00;;;8.43;84.69
42705;BME280;28342;42.594;23.414;2023-05-11T07:06:47;94836.41;;;8.35;85.16
42705;BME280;28342;42.594;23.414;2023-05-11T07:09:13;94842.06;;;8.47;85.16
42705;BME280;28342;42.594;23.414;2023-05-11T07:11:38;94835.63;;;8.53;85.37
42705;BME280;28342;42.594;23.414;2023-05-11T07:14:05;94828.19;;;8.55;84.67
42705;BME280;28342;42.594;23.414;2023-05-11T07:16:32;94848.06;;;8.72;84.14
42705;BME280;28342;42.594;23.414;2023-05-11T07:19:02;94830.41;;;8.67;84.25
42705;BME280;28342;42.594;23.414;2023-05-11T07:21:28;94843.50;;;8.58;84.12
42705;BME280;28342;42.594;23.414;2023-05-11T07:23:53;94848.72;;;8.63;84.20
42705;BME280;28342;42.594;23.414;2023-05-11T07:26:19;94845.50;;;8.66;83.20
42705;BME280;28342;42.594;23.414;2023-05-11T07:28:46;94854.91;;;8.73;83.45
42705;BME280;28342;42.594;23.414;2023-05-11T07:31:11;94838.34;;;8.67;84.10
42705;BME280;28342;42.594;23.414;2023-05-11T07:33:37;94851.78;;;8.71;83.57
42705;BME280;28342;42.594;23.414;2023-05-11T07:36:04;94840.22;;;8.66;82.60
42705;BME280;28342;42.594;23.414;2023-05-11T07:38:30;94847.56;;;8.88;82.57
42705;BME280;28342;42.594;23.414;2023-05-11T07:40:55;94840.91;;;8.91;84.02
42705;BME280;28342;42.594;23.414;2023-05-11T07:43:21;94831.72;;;8.88;81.52
42705;BME280;28342;42.594;23.414;2023-05-11T07:45:46;94830.09;;;8.87;81.31
42705;BME280;28342;42.594;23.414;2023-05-11T07:48:12;94830.94;;;9.02;79.70
42705;BME280;28342;42.594;23.414;2023-05-11T07:50:37;94845.56;;;9.32;81.56
42705;BME280;28342;42.594;23.414;2023-05-11T07:53:03;94843.59;;;9.23;78.44
42705;BME280;28342;42.594;23.414;2023-05-11T07:55:28;94844.22;;;9.48;79.39
42705;BME280;28342;42.594;23.414;2023-05-11T07:57:55;94842.88;;;9.64;78.17
42705;BME280;28342;42.594;23.414;2023-05-11T08:00:20;94846.59;;;9.63;75.87
42705;BME280;28342;42.594;23.414;2023-05-11T08:02:46;94849.25;;;9.63;76.36
42705;BME280;28342;42.594;23.414;2023-05-11T08:05:12;94846.25;;;9.83;77.04
42705;BME280;28342;42.594;23.414;2023-05-11T08:07:38;94847.50;;;9.72;75.46
42705;BME280;28342;42.594;23.414;2023-05-11T08:10:03;94860.97;;;9.89;76.66
42705;BME280;28342;42.594;23.414;2023-05-11T08:12:29;94851.91;;;9.77;74.27
42705;BME280;28342;42.594;23.414;2023-05-11T08:14:54;94859.72;;;10.01;76.33
42705;BME280;28342;42.594;23.414;2023-05-11T08:17:20;94858.81;;;10.19;75.21
42705;BME280;28342;42.594;23.414;2023-05-11T08:19:45;94842.34;;;10.22;73.60
42705;BME280;28342;42.594;23.414;2023-05-11T08:22:11;94843.69;;;10.47;74.83
42705;BME280;28342;42.594;23.414;2023-05-11T08:24:36;94831.91;;;10.39;73.72
42705;BME280;28342;42.594;23.414;2023-05-11T08:27:02;94839.28;;;10.42;72.30
42705;BME280;28342;42.594;23.414;2023-05-11T08:29:27;94850.56;;;10.62;73.13
42705;BME280;28342;42.594;23.414;2023-05-11T08:31:53;94819.53;;;10.48;72.07
42705;BME280;28342;42.594;23.414;2023-05-11T08:34:18;94846.34;;;10.83;71.48
42705;BME280;28342;42.594;23.414;2023-05-11T08:36:44;94848.38;;;11.00;73.34
42705;BME280;28342;42.594;23.414;2023-05-11T08:39:10;94849.63;;;11.02;72.78
42705;BME280;28342;42.594;23.414;2023-05-11T08:41:35;94850.00;;;11.10;71.03
42705;BME280;28342;42.594;23.414;2023-05-11T08:44:01;94856.19;;;11.19;71.24
42705;BME280;28342;42.594;23.414;2023-05-11T08:46:29;94834.81;;;11.24;71.35
42705;BME280;28342;42.594;23.414;2023-05-11T08:48:55;94856.78;;;11.38;70.74
42705;BME280;28342;42.594;23.414;2023-05-11T08:51:22;94852.78;;;11.27;71.70
42705;BME280;28342;42.594;23.414;2023-05-11T08:53:48;94842.78;;;11.24;69.66
42705;BME280;28342;42.594;23.414;2023-05-11T08:56:16;94840.13;;;11.24;71.29
42705;BME280;28342;42.594;23.414;2023-05-11T08:58:41;94846.03;;;11.21;71.46
42705;BME280;28342;42.594;23.414;2023-05-11T09:01:09;94841.56;;;11.07;72.00
42705;BME280;28342;42.594;23.414;2023-05-11T09:03:38;94829.50;;;11.24;72.84
42705;BME280;28342;42.594;23.414;2023-05-11T09:06:06;94827.50;;;11.29;72.75
42705;BME280;28342;42.594;23.414;2023-05-11T09:08:33;94837.28;;;11.20;71.65
42705;BME280;28342;42.594;23.414;2023-05-11T09:11:00;94814.22;;;10.85;71.12
42705;BME280;28342;42.594;23.414;2023-05-11T09:13:26;94823.75;;;10.86;71.29
42705;BME280;28342;42.594;23.414;2023-05-11T09:15:52;94839.13;;;10.75;72.03
42705;BME280;28342;42.594;23.414;2023-05-11T09:18:18;94839.44;;;10.73;72.40
42705;BME280;28342;42.594;23.414;2023-05-11T09:20:44;94842.53;;;10.89;76.04
42705;BME280;28342;42.594;23.414;2023-05-11T09:23:15;94834.69;;;11.06;74.68
42705;BME280;28342;42.594;23.414;2023-05-11T09:25:40;94818.75;;;11.06;72.34
42705;BME280;28342;42.594;23.414;2023-05-11T09:28:05;94828.38;;;11.02;73.39
42705;BME280;28342;42.594;23.414;2023-05-11T09:30:35;94837.25;;;10.98;72.03
42705;BME280;28342;42.594;23.414;2023-05-11T09:33:00;94841.22;;;10.87;72.76
42705;BME280;28342;42.594;23.414;2023-05-11T09:35:31;94839.66;;;10.86;74.00
42705;BME280;28342;42.594;23.414;2023-05-11T09:38:10;94839.03;;;10.66;73.74
42705;BME280;28342;42.594;23.414;2023-05-11T09:40:39;94844.59;;;10.42;75.37
42705;BME280;28342;42.594;23.414;2023-05-11T09:45:43;94823.88;;;10.31;78.12
42705;BME280;28342;42.594;23.414;2023-05-11T09:50:40;94828.38;;;10.58;76.92
42705;BME280;28342;42.594;23.414;2023-05-11T09:53:08;94818.72;;;10.84;77.21
42705;BME280;28342;42.594;23.414;2023-05-11T09:55:34;94828.22;;;10.99;75.27
42705;BME280;28342;42.594;23.414;2023-05-11T09:57:59;94817.06;;;10.88;75.32
42705;BME280;28342;42.594;23.414;2023-05-11T10:00:27;94796.66;;;10.97;76.76
42705;BME280;28342;42.594;23.414;2023-05-11T10:03:00;94824.19;;;11.24;73.05
42705;BME280;28342;42.594;23.414;2023-05-11T10:05:27;94809.81;;;10.80;72.23
42705;BME280;28342;42.594;23.414;2023-05-11T10:08:03;94802.50;;;10.86;73.57
42705;BME280;28342;42.594;23.414;2023-05-11T10:10:31;94800.19;;;10.70;74.23
42705;BME280;28342;42.594;23.414;2023-05-11T10:13:00;94808.50;;;10.55;73.61
42705;BME280;28342;42.594;23.414;2023-05-11T10:15:27;94804.03;;;10.78;75.11
42705;BME280;28342;42.594;23.414;2023-05-11T10:17:58;94799.69;;;10.82;73.32
42705;BME280;28342;42.594;23.414;2023-05-11T10:20:32;94810.41;;;10.77;72.02
42705;BME280;28342;42.594;23.414;2023-05-11T10:22:58;94783.63;;;10.87;74.97
42705;BME280;28342;42.594;23.414;2023-05-11T10:25:25;94791.59;;;10.65;72.40
42705;BME280;28342;42.594;23.414;2023-05-11T10:27:52;94778.75;;;10.81;72.60
42705;BME280;28342;42.594;23.414;2023-05-11T10:30:18;94800.78;;;11.03;72.28
42705;BME280;28342;42.594;23.414;2023-05-11T10:32:44;94787.72;;;11.16;71.13
42705;BME280;28342;42.594;23.414;2023-05-11T10:35:13;94787.94;;;11.50;71.90
42705;BME280;28342;42.594;23.414;2023-05-11T10:37:40;94771.84;;;11.55;70.93
42705;BME280;28342;42.594;23.414;2023-05-11T10:40:08;94768.97;;;11.43;71.44
42705;BME280;28342;42.594;23.414;2023-05-11T10:45:50;94760.34;;;11.06;71.16
42705;BME280;28342;42.594;23.414;2023-05-11T10:54:32;94784.50;;;11.81;70.73
42705;BME280;28342;42.594;23.414;2023-05-11T10:57:54;94789.56;;;12.08;68.11
42705;BME280;28342;42.594;23.414;2023-05-11T11:02:56;94778.72;;;12.44;68.80
42705;BME280;28342;42.594;23.414;2023-05-11T11:05:32;94781.16;;;12.23;66.81
42705;BME280;28342;42.594;23.414;2023-05-11T11:08:00;94799.84;;;12.49;69.45
42705;BME280;28342;42.594;23.414;2023-05-11T11:10:36;94795.47;;;12.45;66.64
42705;BME280;28342;42.594;23.414;2023-05-11T11:13:07;94797.50;;;12.48;65.92
42705;BME280;28342;42.594;23.414;2023-05-11T11:18:30;94791.19;;;12.35;68.23
42705;BME280;28342;42.594;23.414;2023-05-11T11:21:00;94779.34;;;12.50;67.23
42705;BME280;28342;42.594;23.414;2023-05-11T11:23:42;94793.09;;;12.52;66.24
42705;BME280;28342;42.594;23.414;2023-05-11T11:26:13;94779.31;;;12.33;66.85
42705;BME280;28342;42.594;23.414;2023-05-11T11:31:31;94794.69;;;13.05;67.07
42705;BME280;28342;42.594;23.414;2023-05-11T11:34:30;94754.56;;;13.01;65.69
42705;BME280;28342;42.594;23.414;2023-05-11T11:42:12;94784.63;;;13.36;63.18
42705;BME280;28342;42.594;23.414;2023-05-11T11:44:39;94771.81;;;13.21;66.35
42705;BME280;28342;42.594;23.414;2023-05-11T11:47:18;94778.25;;;13.03;63.98
42705;BME280;28342;42.594;23.414;2023-05-11T11:49:46;94775.59;;;12.68;66.63
42705;BME280;28342;42.594;23.414;2023-05-11T11:52:31;94765.13;;;12.72;67.77
42705;BME280;28342;42.594;23.414;2023-05-11T11:55:03;94772.13;;;12.94;65.86
42705;BME280;28342;42.594;23.414;2023-05-11T12:00:05;94785.16;;;12.78;65.54
42705;BME280;28342;42.594;23.414;2023-05-11T12:02:32;94777.75;;;12.32;66.40
42705;BME280;28342;42.594;23.414;2023-05-11T12:07:44;94774.47;;;12.52;68.12
42705;BME280;28342;42.594;23.414;2023-05-11T12:10:14;94784.34;;;12.60;67.46
42705;BME280;28342;42.594;23.414;2023-05-11T12:12:51;94768.53;;;12.29;66.45
42705;BME280;28342;42.594;23.414;2023-05-11T12:15:30;94769.03;;;12.57;66.11
42705;BME280;28342;42.594;23.414;2023-05-11T12:18:03;94768.06;;;12.70;66.90
42705;BME280;28342;42.594;23.414;2023-05-11T12:20:29;94769.31;;;12.55;66.21
42705;BME280;28342;42.594;23.414;2023-05-11T12:22:55;94765.25;;;12.58;65.85
42705;BME280;28342;42.594;23.414;2023-05-11T12:25:20;94758.69;;;12.47;66.45
42705;BME280;28342;42.594;23.414;2023-05-11T12:27:50;94750.09;;;12.59;66.71
42705;BME280;28342;42.594;23.414;2023-05-11T12:32:46;94755.84;;;12.69;66.40
42705;BME280;28342;42.594;23.414;2023-05-11T12:35:11;94757.41;;;12.70;65.75
42705;BME280;28342;42.594;23.414;2023-05-11T12:37:40;94750.69;;;12.81;67.43
42705;BME280;28342;42.594;23.414;2023-05-11T12:40:09;94740.03;;;12.55;66.23
42705;BME280;28342;42.594;23.414;2023-05-11T12:42:36;94749.59;;;12.48;66.28
42705;BME280;28342;42.594;23.414;2023-05-11T12:45:03;94741.63;;;12.56;66.48
42705;BME280;28342;42.594;23.414;2023-05-11T12:47:28;94728.13;;;12.70;67.14
42705;BME280;28342;42.594;23.414;2023-05-11T12:49:54;94723.78;;;12.74;65.30
42705;BME280;28342;42.594;23.414;2023-05-11T12:52:22;94728.28;;;12.82;66.92
42705;BME280;28342;42.594;23.414;2023-05-11T12:54:49;94728.28;;;12.82;66.69
42705;BME280;28342;42.594;23.414;2023-05-11T12:57:28;94711.25;;;12.75;67.52
42705;BME280;28342;42.594;23.414;2023-05-11T13:00:11;94710.41;;;13.09;65.35
42705;BME280;28342;42.594;23.414;2023-05-11T13:05:10;94705.84;;;13.09;64.36
42705;BME280;28342;42.594;23.414;2023-05-11T13:07:36;94703.38;;;13.04;66.33
42705;BME280;28342;42.594;23.414;2023-05-11T13:10:01;94703.97;;;13.01;66.35
42705;BME280;28342;42.594;23.414;2023-05-11T13:12:27;94705.19;;;13.30;65.31
42705;BME280;28342;42.594;23.414;2023-05-11T13:15:10;94703.66;;;13.20;64.11
42705;BME280;28342;42.594;23.414;2023-05-11T13:17:38;94707.44;;;13.19;64.94
42705;BME280;28342;42.594;23.414;2023-05-11T13:22:42;94683.34;;;12.90;65.48
42705;BME280;28342;42.594;23.414;2023-05-11T13:25:08;94698.50;;;12.98;65.09
42705;BME280;28342;42.594;23.414;2023-05-11T13:27:34;94706.91;;;13.17;64.74
42705;BME280;28342;42.594;23.414;2023-05-11T13:30:00;94703.28;;;13.39;66.60
42705;BME280;28342;42.594;23.414;2023-05-11T13:32:25;94704.97;;;13.43;65.23
42705;BME280;28342;42.594;23.414;2023-05-11T13:34:51;94704.28;;;13.64;65.66
42705;BME280;28342;42.594;23.414;2023-05-11T13:37:16;94709.44;;;13.69;62.26
42705;BME280;28342;42.594;23.414;2023-05-11T13:39:43;94692.78;;;13.72;63.04
42705;BME280;28342;42.594;23.414;2023-05-11T13:42:08;94707.97;;;13.80;65.14
42705;BME280;28342;42.594;23.414;2023-05-11T13:44:34;94705.56;;;13.87;62.69
42705;BME280;28342;42.594;23.414;2023-05-11T13:47:00;94702.97;;;13.32;62.37
42705;BME280;28342;42.594;23.414;2023-05-11T13:49:26;94697.81;;;13.35;64.49